This is the latest recevied weather packets stored in our database for station/object GW1598. If no packets are shown the sender has not sent any weather packets the latest 10 day(s).
| Time | Temp. | Humidity | Pressure | Rain* | Wind** | Luminosity | Snow |
|---|---|---|---|---|---|---|---|
| 1777729880 | 7.78° C | 81% | 1012.1 hPa | 0 mm | - | - | - |
| 1777729515 | 6.11° C | 95% | 1011.8 hPa | 0 mm | - | - | - |
| 1777727713 | 5° C | 99% | 1012.1 hPa | 0 mm | - | - | - |
| 1777725575 | 2.78° C | 98% | 1012.1 hPa | 0 mm | - | - | - |
| 1777723604 | 1.67° C | 98% | 1012.1 hPa | 0 mm | - | - | - |
| 1777722891 | 1.67° C | 98% | 1012.1 hPa | 0 mm | - | - | - |
| 1777722152 | 1.11° C | 98% | 1011.8 hPa | 0 mm | - | - | - |
| 1777717127 | 1.67° C | 97% | 1012.1 hPa | 0 mm | - | - | - |
| 1777716391 | 1.67° C | 97% | 1012.1 hPa | 0 mm | - | - | - |
| 1777705944 | 2.22° C | 96% | 1011.8 hPa | 0 mm | - | - | - |
| 1777701647 | 2.78° C | 95% | 1012.5 hPa | 0 mm | - | - | - |
| 1777701288 | 2.78° C | 95% | 1012.5 hPa | 0 mm | - | - | - |
| 1777699821 | 2.78° C | 94% | 1012.5 hPa | 0 mm | - | - | - |
| 1777698388 | 3.33° C | 94% | 1012.5 hPa | 0 mm | - | - | - |
| 1777696791 | 3.89° C | 94% | 1012.8 hPa | 0 mm | - | - | - |
| 1777693193 | 4.44° C | 91% | 1012.5 hPa | 0 mm | - | - | - |
| 1777689589 | 6.11° C | 85% | 1012.5 hPa | 0 mm | - | - | - |
| 1777685993 | 8.89° C | 76% | 1011.5 hPa | 0 mm | - | - | - |
| 1777684176 | 10° C | 69% | 1010.8 hPa | 0 mm | - | - | - |
| 1777683078 | 10.56° C | 67% | 1010.4 hPa | 0 mm | - | - | - |
| 1777682355 | 11.11° C | 66% | 1010.4 hPa | 0 mm | - | - | - |
| 1777680563 | 11.67° C | 66% | 1009.8 hPa | 0 mm | - | - | - |
| 1777679693 | 12.22° C | 69% | 1009.1 hPa | 0 mm | - | - | - |
| 1777678410 | 12.22° C | 71% | 1008.8 hPa | 0 mm | - | - | - |
| 1777677679 | 12.22° C | 73% | 1008.8 hPa | 0 mm | - | - | - |
* Rain since midnight (hover to see other rain measurements)
** Current wind speed in m/s (hover to see current wind gust speed)